Time;durP1;ratioP1;P1;durP2;ratioP2;P2;SDS_P1;SDS_P2;PMS_P1;PMS_P2;Temp;Humidity;BMP_temperature;BMP_pressure;BME280_temperature;BME280_humidity;BME280_pressure;Samples;Min_cycle;Max_cycle;Signal;HPM_P1;HPM_P2
2023/04/22 00:00:43;;;;;;;4.75;2.92;;;12.30;1.00;;;;;;5035904;28;20044;-79
2023/04/22 00:03:09;;;;;;;6.57;2.88;;;12.50;1.00;;;;;;5052338;28;20056;-79
2023/04/22 00:05:34;;;;;;;4.72;3.10;;;12.70;1.00;;;;;;5051961;28;20146;-78
2023/04/22 00:08:00;;;;;;;6.65;2.83;;;13.60;1.00;;;;;;5052184;28;20111;-79
2023/04/22 00:10:26;;;;;;;5.28;2.97;;;11.90;1.00;;;;;;5052028;28;20045;-79
2023/04/22 00:12:52;;;;;;;4.45;2.97;;;12.10;1.00;;;;;;5035376;28;20459;-79
2023/04/22 00:15:20;;;;;;;5.93;3.05;;;11.80;1.00;;;;;;5051894;28;20124;-78
2023/04/22 00:17:47;;;;;;;6.32;3.28;;;11.80;1.00;;;;;;5051910;28;20416;-78
2023/04/22 00:20:12;;;;;;;5.55;2.95;;;11.70;1.00;;;;;;5035296;28;20044;-79
2023/04/22 00:22:38;;;;;;;4.97;3.35;;;11.70;1.00;;;;;;5035459;28;20041;-78
2023/04/22 00:25:04;;;;;;;6.13;3.22;;;13.20;5.10;;;;;;5051879;28;20124;-79
2023/04/22 00:27:29;;;;;;;5.22;3.25;;;11.50;11.60;;;;;;5051998;28;20041;-78
2023/04/22 00:29:55;;;;;;;7.57;4.00;;;11.30;8.10;;;;;;5051803;28;20136;-79
2023/04/22 00:32:21;;;;;;;6.47;3.78;;;11.40;24.40;;;;;;5035093;28;20032;-78
2023/04/22 00:34:47;;;;;;;4.20;2.90;;;11.40;5.00;;;;;;5051582;28;20098;-79
2023/04/22 00:37:12;;;;;;;3.78;2.97;;;11.40;8.40;;;;;;5035244;28;20036;-78
2023/04/22 00:39:38;;;;;;;4.50;3.13;;;11.20;12.70;;;;;;5052040;28;20055;-78
2023/04/22 00:42:06;;;;;;;5.53;3.75;;;11.20;41.90;;;;;;5035164;28;20044;-78
2023/04/22 00:44:31;;;;;;;5.07;3.60;;;11.00;39.70;;;;;;5051565;28;20147;-78
2023/04/22 00:46:58;;;;;;;5.30;3.10;;;11.00;44.70;;;;;;5051907;28;20515;-79
2023/04/22 00:49:26;;;;;;;5.55;3.55;;;13.00;38.30;;;;;;5035069;28;20036;-78
2023/04/22 00:51:52;;;;;;;4.75;2.88;;;12.40;28.30;;;;;;5035113;28;20127;-78
2023/04/22 00:54:18;;;;;;;5.80;3.15;;;11.00;19.50;;;;;;5034677;28;20083;-78
2023/04/22 00:56:45;;;;;;;6.32;3.75;;;10.80;49.60;;;;;;5051679;28;20037;-78
2023/04/22 00:59:11;;;;;;;6.03;3.33;;;11.00;66.10;;;;;;5051335;28;20120;-78
2023/04/22 01:01:37;;;;;;;5.25;3.80;;;10.90;76.60;;;;;;5051453;28;20091;-78
2023/04/22 01:04:04;;;;;;;5.22;3.03;;;11.30;66.00;;;;;;5051676;28;20056;-79
2023/04/22 01:06:32;;;;;;;6.65;3.67;;;10.80;62.20;;;;;;5035161;28;20045;-84
2023/04/22 01:08:58;;;;;;;5.97;3.65;;;10.90;59.10;;;;;;5034823;28;20102;-84
2023/04/22 01:11:24;;;;;;;5.03;3.10;;;11.00;57.90;;;;;;5051626;28;20115;-85
2023/04/22 01:13:50;;;;;;;8.07;3.13;;;11.00;51.20;;;;;;5051588;28;20037;-84
2023/04/22 01:16:16;;;;;;;5.68;3.40;;;11.20;49.60;;;;;;5051917;28;20077;-84
2023/04/22 01:18:41;;;;;;;6.70;3.95;;;10.90;53.90;;;;;;5052239;28;20382;-85
2023/04/22 01:21:08;;;;;;;4.57;3.15;;;10.90;51.90;;;;;;5052482;28;20073;-84
2023/04/22 01:23:34;;;;;;;5.70;3.70;;;10.90;43.60;;;;;;5034969;28;20063;-84
2023/04/22 01:25:59;;;;;;;11.38;3.67;;;11.00;62.70;;;;;;5051620;28;20089;-84
2023/04/22 01:28:25;;;;;;;7.72;3.63;;;11.20;63.00;;;;;;5051462;28;20040;-84
2023/04/22 01:30:51;;;;;;;4.07;2.83;;;10.90;61.00;;;;;;5034799;28;20115;-84
2023/04/22 01:33:17;;;;;;;5.35;3.65;;;11.60;50.00;;;;;;5051626;28;20049;-84
2023/04/22 01:35:44;;;;;;;4.18;3.13;;;10.70;50.90;;;;;;5055410;28;20052;-85
2023/04/22 01:38:11;;;;;;;8.38;3.40;;;10.70;52.20;;;;;;5055805;28;20029;-86
2023/04/22 01:40:38;;;;;;;5.57;3.08;;;10.50;59.60;;;;;;5055340;28;20033;-83
2023/04/22 01:43:04;;;;;;;6.63;3.47;;;;;;;;;;5055273;28;20171;-84
2023/04/22 01:45:30;;;;;;;5.53;2.90;;;;;;;;;;5055451;28;20040;-83
2023/04/22 01:47:57;;;;;;;6.43;3.75;;;;;;;;;;5038447;28;20477;-84
2023/04/22 01:50:23;;;;;;;5.95;4.07;;;;;;;;;;5055516;28;20556;-83
2023/04/22 01:52:49;;;;;;;5.70;3.50;;;;;;;;;;5055005;28;20386;-84
2023/04/22 01:55:15;;;;;;;4.60;3.28;;;;;;;;;;5055229;28;20071;-83
2023/04/22 01:57:41;;;;;;;4.95;3.25;;;;;;;;;;5055333;28;20040;-84
2023/04/22 02:00:08;;;;;;;4.82;3.25;;;;;;;;;;5055521;28;20044;-84
2023/04/22 02:02:34;;;;;;;8.75;4.05;;;;;;;;;;5070256;22;20049;-65
2023/04/22 02:05:00;;;;;;;6.85;3.90;;;;;;;;;;5055716;28;20466;-65
2023/04/22 02:07:26;;;;;;;5.75;3.67;;;;;;;;;;5055860;28;20041;-66
2023/04/22 02:09:52;;;;;;;6.15;3.63;;;;;;;;;;5055812;28;20045;-66
2023/04/22 02:12:18;;;;;;;6.10;3.58;;;;;;;;;;5037652;28;20049;-66
2023/04/22 02:14:44;;;;;;;6.85;3.88;;;;;;;;;;5055642;28;20068;-65
2023/04/22 02:17:10;;;;;;;7.45;3.72;;;;;;;;;;5055427;28;20043;-65
2023/04/22 02:19:36;;;;;;;6.53;3.90;;;;;;;;;;5055335;28;20048;-66
2023/04/22 02:22:02;;;;;;;8.02;4.20;;;;;;;;;;5055649;28;20040;-66
2023/04/22 02:24:28;;;;;;;6.60;4.05;;;;;;;;;;5055548;28;20098;-66
2023/04/22 02:26:54;;;;;;;6.97;3.25;;;;;;;;;;5055604;28;20080;-66
2023/04/22 02:29:20;;;;;;;6.70;3.53;;;;;;;;;;5055502;28;20369;-66
2023/04/22 02:31:46;;;;;;;8.38;4.50;;;;;;;;;;5055358;28;20040;-66
2023/04/22 02:34:12;;;;;;;6.80;3.70;;;;;;;;;;5055273;28;20040;-66
2023/04/22 02:36:38;;;;;;;4.65;3.17;;;;;;;;;;5055016;28;20480;-65
2023/04/22 02:39:04;;;;;;;7.75;4.85;;;;;;;;;;5055277;28;20120;-66
2023/04/22 02:41:31;;;;;;;6.15;3.95;;;;;;;;;;5055152;28;20041;-67
2023/04/22 02:43:57;;;;;;;6.22;4.45;;;;;;;;;;5054831;28;20124;-66
2023/04/22 02:46:22;;;;;;;6.25;4.38;;;;;;;;;;5052299;28;20130;-65
2023/04/22 02:48:48;;;;;;;8.00;3.97;;;;;;;;;;5054963;28;20399;-66
2023/04/22 02:51:15;;;;;;;5.97;4.25;;;;;;;;;;5055011;28;20037;-66
2023/04/22 02:53:41;;;;;;;6.43;4.03;;;;;;;;;;5055166;28;20036;-66
2023/04/22 02:56:08;;;;;;;5.93;4.05;;;;;;;;;;5054565;28;20076;-66
2023/04/22 02:58:34;;;;;;;6.60;3.95;;;;;;;;;;5054824;28;20041;-65
2023/04/22 03:01:00;;;;;;;7.47;4.43;;;;;;;;;;5054781;28;20039;-65
2023/04/22 03:03:26;;;;;;;6.40;4.32;;;;;;;;;;5054478;28;20480;-66
2023/04/22 03:05:52;;;;;;;9.38;4.90;;;;;;;;;;5054689;28;20057;-65
2023/04/22 03:08:19;;;;;;;10.60;4.05;;;;;;;;;;5054649;28;20099;-66
2023/04/22 03:10:45;;;;;;;6.38;4.28;;;;;;;;;;5054333;28;20193;-66
2023/04/22 03:13:12;;;;;;;5.53;3.67;;;;;;;;;;5054297;28;20036;-66
2023/04/22 03:15:39;;;;;;;6.65;4.40;;;;;;;;;;5054389;28;20503;-66
2023/04/22 03:18:05;;;;;;;5.78;3.75;;;9.80;92.60;;;;;;5054482;28;20060;-66
2023/04/22 03:20:31;;;;;;;6.15;3.97;;;9.70;93.20;;;;;;5036711;28;20427;-66
2023/04/22 03:22:56;;;;;;;5.95;4.18;;;9.60;93.40;;;;;;5054435;28;20076;-66
2023/04/22 03:25:22;;;;;;;7.72;4.07;;;10.70;94.00;;;;;;5054257;28;20037;-66
2023/04/22 03:27:47;;;;;;;5.80;3.50;;;9.60;93.60;;;;;;5036108;28;20270;-66
2023/04/22 03:30:13;;;;;;;8.35;5.15;;;9.50;94.80;;;;;;5053955;28;20039;-66
2023/04/22 03:32:39;;;;;;;9.05;4.07;;;9.40;95.60;;;;;;5054159;28;20357;-66
2023/04/22 03:35:05;;;;;;;9.35;4.38;;;9.40;97.70;;;;;;5053772;28;20083;-66
2023/04/22 03:37:31;;;;;;;8.25;3.92;;;9.40;99.90;;;;;;5036113;28;20080;-66
2023/04/22 03:39:56;;;;;;;6.97;3.90;;;10.00;99.90;;;;;;5035927;28;20065;-65
2023/04/22 03:42:22;;;;;;;7.35;4.00;;;9.30;99.90;;;;;;5054016;28;20056;-65
2023/04/22 03:44:47;;;;;;;5.80;3.67;;;9.30;99.90;;;;;;5053707;28;20063;-65
2023/04/22 03:47:13;;;;;;;5.55;3.80;;;9.20;99.90;;;;;;5053915;28;20123;-66
2023/04/22 03:49:38;;;;;;;6.07;3.92;;;9.20;99.90;;;;;;5053853;28;20048;-65
2023/04/22 03:52:04;;;;;;;6.10;3.65;;;9.10;99.90;;;;;;5053573;28;20037;-66
2023/04/22 03:54:30;;;;;;;7.75;3.78;;;9.10;99.90;;;;;;5053689;28;20395;-65
2023/04/22 03:56:55;;;;;;;5.72;3.47;;;9.00;99.90;;;;;;5053391;28;20045;-65
2023/04/22 03:59:21;;;;;;;5.75;3.40;;;9.00;99.90;;;;;;5053445;28;20076;-66
2023/04/22 04:01:49;;;;;;;6.75;3.88;;;9.00;99.90;;;;;;5053629;28;20037;-65
2023/04/22 04:04:15;;;;;;;5.97;3.85;;;8.90;99.90;;;;;;5053663;28;20037;-63
2023/04/22 04:06:40;;;;;;;7.65;4.25;;;8.90;99.90;;;;;;5053498;28;20045;-63
2023/04/22 04:09:06;;;;;;;5.50;4.03;;;8.90;99.90;;;;;;5053300;28;20032;-63
2023/04/22 04:11:32;;;;;;;7.40;3.92;;;8.90;99.90;;;;;;5053428;28;20033;-63
2023/04/22 04:13:57;;;;;;;6.35;4.05;;;8.90;99.90;;;;;;5053496;28;20029;-64
2023/04/22 04:16:23;;;;;;;6.60;3.85;;;8.80;99.90;;;;;;5053325;28;20071;-63
2023/04/22 04:18:49;;;;;;;6.47;3.90;;;8.80;99.90;;;;;;5053306;28;20045;-63
2023/04/22 04:21:15;;;;;;;6.90;4.13;;;8.80;99.90;;;;;;5053243;28;20029;-63
2023/04/22 04:23:41;;;;;;;5.88;3.50;;;8.80;99.90;;;;;;5053279;28;20387;-63
2023/04/22 04:26:07;;;;;;;6.57;4.10;;;8.80;99.90;;;;;;5035093;28;20045;-63
2023/04/22 04:28:34;;;;;;;6.47;3.92;;;8.80;99.90;;;;;;5053142;28;20484;-63
2023/04/22 04:31:03;;;;;;;5.20;3.08;;;8.70;99.90;;;;;;5053054;28;20052;-63
2023/04/22 04:33:31;;;;;;;6.32;4.53;;;8.70;99.90;;;;;;5053126;28;20425;-63
2023/04/22 04:35:57;;;;;;;7.63;4.05;;;8.80;99.90;;;;;;5053035;28;20112;-63
2023/04/22 04:38:23;;;;;;;5.75;3.85;;;8.80;99.90;;;;;;5053014;28;20460;-63
2023/04/22 04:40:50;;;;;;;8.40;4.07;;;8.80;99.90;;;;;;5052726;28;20056;-63
2023/04/22 04:43:16;;;;;;;8.85;4.25;;;8.80;99.90;;;;;;5053050;28;20036;-63
2023/04/22 04:45:45;;;;;;;7.32;4.32;;;8.90;99.90;;;;;;5052917;28;20163;-63
2023/04/22 04:48:15;;;;;;;7.85;4.35;;;8.90;99.90;;;;;;5034987;28;20076;-63
2023/04/22 04:50:42;;;;;;;6.40;4.05;;;8.90;99.90;;;;;;5052855;28;20511;-63
2023/04/22 04:53:11;;;;;;;6.55;4.03;;;9.00;99.90;;;;;;5052644;28;20041;-63
2023/04/22 04:55:37;;;;;;;8.05;4.25;;;9.00;99.90;;;;;;5052788;28;20048;-63
2023/04/22 04:58:02;;;;;;;8.60;4.85;;;9.00;99.90;;;;;;5052854;28;20492;-63
2023/04/22 05:00:28;;;;;;;5.50;3.78;;;9.10;99.90;;;;;;5052787;28;20039;-63
2023/04/22 05:02:54;;;;;;;5.57;3.85;;;9.20;99.90;;;;;;5052373;28;20151;-63
2023/04/22 05:05:19;;;;;;;7.72;4.28;;;9.20;99.90;;;;;;5052730;28;20048;-63
2023/04/22 05:07:45;;;;;;;6.18;4.38;;;9.30;99.90;;;;;;5034535;28;20045;-63
2023/04/22 05:10:11;;;;;;;7.18;4.38;;;9.30;99.90;;;;;;5037530;28;20495;-63
2023/04/22 05:12:36;;;;;;;9.73;4.47;;;9.40;99.90;;;;;;5056885;28;20446;-63
2023/04/22 05:15:02;;;;;;;8.43;4.53;;;9.40;99.90;;;;;;5056751;28;20098;-63
2023/04/22 05:17:28;;;;;;;6.25;4.30;;;9.40;99.90;;;;;;5056774;28;20461;-64
2023/04/22 05:19:53;;;;;;;6.90;4.20;;;9.50;99.90;;;;;;5056338;28;20111;-63
2023/04/22 05:22:19;;;;;;;8.20;4.53;;;9.50;99.90;;;;;;5056674;28;20043;-63
2023/04/22 05:24:45;;;;;;;6.78;4.82;;;9.60;99.90;;;;;;5056567;28;20091;-63
2023/04/22 05:27:11;;;;;;;7.15;4.57;;;11.00;99.90;;;;;;5056632;28;20441;-63
2023/04/22 05:29:36;;;;;;;8.68;4.95;;;9.60;99.60;;;;;;5056578;28;20041;-63
2023/04/22 05:32:02;;;;;;;9.70;4.97;;;9.70;97.80;;;;;;5056524;28;20036;-63
2023/04/22 05:34:27;;;;;;;8.85;5.45;;;9.70;94.70;;;;;;5038329;28;20156;-63
2023/04/22 05:36:53;;;;;;;7.75;4.55;;;9.70;94.00;;;;;;5056424;28;20077;-63
2023/04/22 05:39:19;;;;;;;7.13;5.13;;;9.70;92.10;;;;;;5056396;28;20388;-64
2023/04/22 05:41:45;;;;;;;8.63;5.00;;;9.80;97.60;;;;;;5056391;28;20037;-64
2023/04/22 05:44:10;;;;;;;6.03;4.20;;;9.80;95.20;;;;;;5056026;28;20455;-64
2023/04/22 05:46:36;;;;;;;7.30;4.60;;;10.00;94.90;;;;;;5056306;28;20040;-65
2023/04/22 05:49:02;;;;;;;8.63;5.13;;;9.80;92.40;;;;;;5056245;28;20037;-64
2023/04/22 05:51:27;;;;;;;7.22;5.03;;;9.80;95.00;;;;;;5056238;28;20528;-64
2023/04/22 05:53:53;;;;;;;6.90;4.43;;;9.90;92.10;;;;;;5056175;28;20463;-64
2023/04/22 05:56:20;;;;;;;6.57;4.35;;;10.00;88.50;;;;;;5056079;28;20037;-64
2023/04/22 05:58:45;;;;;;;8.07;4.80;;;11.00;92.80;;;;;;5055836;28;20468;-64
2023/04/22 06:01:12;;;;;;;5.78;4.20;;;10.00;90.10;;;;;;5055725;28;20090;-63
2023/04/22 06:03:37;;;;;;;7.45;4.55;;;10.10;91.80;;;;;;5055643;28;20499;-64
2023/04/22 06:06:03;;;;;;;7.13;4.43;;;10.10;91.40;;;;;;5055963;28;20059;-64
2023/04/22 06:08:30;;;;;;;7.65;4.18;;;10.10;92.70;;;;;;5055843;28;20048;-63
2023/04/22 06:10:56;;;;;;;7.05;4.40;;;10.20;90.80;;;;;;5055678;28;20047;-64
2023/04/22 06:13:21;;;;;;;6.85;4.40;;;10.30;88.50;;;;;;5055778;28;20112;-64
2023/04/22 06:15:47;;;;;;;6.57;4.40;;;10.30;90.60;;;;;;5055657;28;20882;-64
2023/04/22 06:18:13;;;;;;;6.75;4.32;;;10.30;91.40;;;;;;5055345;28;20393;-64
2023/04/22 06:20:38;;;;;;;11.88;5.07;;;10.40;94.20;;;;;;5055154;28;20052;-64
2023/04/22 06:23:04;;;;;;;6.13;4.25;;;10.40;90.50;;;;;;5055500;28;20040;-64
2023/04/22 06:25:31;;;;;;;6.80;4.63;;;10.50;94.30;;;;;;5055468;28;20501;-64
2023/04/22 06:27:58;;;;;;;7.13;4.68;;;11.20;90.90;;;;;;5055482;28;20399;-64
2023/04/22 06:30:24;;;;;;;8.32;4.35;;;10.60;91.80;;;;;;5055390;28;20041;-64
2023/04/22 06:32:50;;;;;;;6.25;4.00;;;10.70;91.50;;;;;;5055251;28;20159;-64
2023/04/22 06:35:16;;;;;;;7.20;4.70;;;10.70;92.60;;;;;;5055092;28;20114;-64
2023/04/22 06:37:42;;;;;;;9.50;4.50;;;10.80;91.10;;;;;;5037005;28;20515;-64
2023/04/22 06:40:08;;;;;;;8.13;4.68;;;10.90;90.00;;;;;;5055081;28;20044;-64
2023/04/22 06:42:34;;;;;;;7.32;4.43;;;10.90;90.50;;;;;;5055071;28;20114;-64
2023/04/22 06:44:59;;;;;;;9.95;5.45;;;11.00;91.80;;;;;;5055113;28;20491;-64
2023/04/22 06:47:25;;;;;;;9.05;4.75;;;10.90;90.70;;;;;;5055021;28;20045;-64
2023/04/22 06:49:50;;;;;;;7.78;5.30;;;11.10;89.20;;;;;;5054945;28;20033;-64
2023/04/22 06:52:16;;;;;;;8.45;4.28;;;11.10;91.90;;;;;;5054975;28;20079;-64
2023/04/22 06:54:42;;;;;;;5.95;4.28;;;11.10;91.90;;;;;;5054854;28;20033;-64
2023/04/22 06:57:07;;;;;;;7.32;4.63;;;11.30;91.00;;;;;;5054476;28;20044;-63
2023/04/22 06:59:33;;;;;;;7.72;4.25;;;11.30;92.60;;;;;;5054457;28;20199;-64
2023/04/22 07:01:58;;;;;;;8.63;4.50;;;11.40;91.00;;;;;;5019994;28;20482;-62
2023/04/22 07:04:26;;;;;;;8.13;5.15;;;11.20;90.00;;;;;;5049689;28;20053;-62
2023/04/22 07:06:52;;;;;;;7.10;4.50;;;11.50;87.60;;;;;;5054744;28;20051;-64
2023/04/22 07:09:17;;;;;;;9.45;5.28;;;11.30;82.10;;;;;;5054459;28;20492;-64
2023/04/22 07:11:43;;;;;;;7.00;4.55;;;11.60;80.60;;;;;;5054640;28;20036;-62
2023/04/22 07:14:09;;;;;;;7.50;4.75;;;11.80;80.50;;;;;;5052973;28;20558;-63
2023/04/22 07:16:34;;;;;;;6.30;4.22;;;12.10;83.70;;;;;;5054634;28;20044;-62
2023/04/22 07:19:00;;;;;;;6.95;4.43;;;11.90;81.50;;;;;;5054557;28;20044;-63
2023/04/22 07:21:26;;;;;;;6.90;4.70;;;12.00;82.10;;;;;;5054259;28;20041;-64
2023/04/22 07:23:51;;;;;;;6.95;4.47;;;12.00;75.80;;;;;;5054388;28;20033;-63
2023/04/22 07:26:17;;;;;;;7.43;4.80;;;12.00;75.90;;;;;;5052873;28;20120;-63
2023/04/22 07:28:44;;;;;;;11.52;5.15;;;;;;;;;;5054040;28;20029;-63
2023/04/22 07:31:10;;;;;;;6.85;4.63;;;;;;;;;;5053894;28;20492;-64
2023/04/22 07:33:36;;;;;;;7.45;4.90;;;;;;;;;;5053877;28;20093;-64
2023/04/22 07:36:02;;;;;;;7.80;4.85;;;;;;;;;;5054120;28;20120;-64
2023/04/22 07:38:28;;;;;;;8.02;4.60;;;;;;;;;;5054057;28;20048;-64
2023/04/22 07:40:54;;;;;;;8.75;4.72;;;;;;;;;;5054082;28;20041;-64
2023/04/22 07:43:20;;;;;;;8.57;4.75;;;;;;;;;;5054041;28;20041;-64
2023/04/22 07:45:46;;;;;;;9.00;4.32;;;;;;;;;;5053927;28;20048;-64
2023/04/22 07:48:12;;;;;;;8.00;5.03;;;;;;;;;;5053854;28;20040;-64
2023/04/22 07:50:38;;;;;;;8.57;4.95;;;;;;;;;;5053947;28;20037;-64
2023/04/22 07:53:04;;;;;;;8.02;4.78;;;;;;;;;;5053969;28;20044;-64
2023/04/22 07:55:30;;;;;;;9.18;5.68;;;13.20;17.00;;;;;;5053543;28;20519;-64
2023/04/22 07:57:56;;;;;;;7.25;5.22;;;13.10;22.90;;;;;;5053855;28;20041;-64
2023/04/22 08:00:22;;;;;;;8.43;5.10;;;12.80;1.00;;;;;;5053487;28;20118;-64
2023/04/22 08:02:47;;;;;;;7.63;5.20;;;13.20;1.00;;;;;;5053543;28;20056;-64
2023/04/22 08:05:13;;;;;;;6.43;5.00;;;13.30;1.00;;;;;;5053727;28;20124;-64
2023/04/22 08:07:38;;;;;;;7.50;5.07;;;13.30;1.00;;;;;;5053674;28;20476;-64
2023/04/22 08:10:07;;;;;;;6.82;4.88;;;13.10;1.00;;;;;;5053946;28;20115;-65
2023/04/22 08:12:32;;;;;;;7.00;4.20;;;13.30;1.00;;;;;;5035736;28;20060;-64
2023/04/22 08:14:58;;;;;;;6.43;4.65;;;13.20;1.00;;;;;;5053393;28;20037;-64
2023/04/22 08:17:23;;;;;;;8.88;4.93;;;13.50;1.00;;;;;;5053433;28;20116;-65
2023/04/22 08:19:49;;;;;;;7.53;4.82;;;14.30;1.00;;;;;;5053389;28;20037;-64
2023/04/22 08:22:16;;;;;;;7.45;5.20;;;13.90;1.00;;;;;;5053158;28;20122;-63
2023/04/22 08:24:42;;;;;;;7.30;4.82;;;13.90;99.90;;;;;;5052881;28;20084;-65
2023/04/22 08:27:07;;;;;;;9.77;5.03;;;13.90;99.90;;;;;;5053305;28;20134;-64
2023/04/22 08:29:33;;;;;;;6.85;5.07;;;14.40;99.90;;;;;;5053159;28;20463;-64
2023/04/22 08:31:58;;;;;;;6.63;4.65;;;15.30;99.90;;;;;;5053261;28;20037;-65
2023/04/22 08:34:26;;;;;;;6.53;4.10;;;14.20;1.00;;;;;;5053042;28;20071;-66
2023/04/22 08:36:52;;;;;;;8.88;4.15;;;;;;;;;;5053024;28;20421;-66
2023/04/22 08:39:18;;;;;;;7.75;4.95;;;14.50;3.80;;;;;;5052968;28;20032;-62
2023/04/22 08:41:45;;;;;;;6.30;4.32;;;14.60;99.90;;;;;;5052921;28;20087;-62
2023/04/22 08:44:12;;;;;;;7.65;4.82;;;14.70;99.90;;;;;;5052900;28;20037;-66
2023/04/22 08:46:40;;;;;;;10.90;4.93;;;14.80;1.00;;;;;;5052860;28;20040;-63
2023/04/22 08:49:06;;;;;;;9.75;4.93;;;14.80;1.00;;;;;;5034823;28;20385;-64
2023/04/22 08:51:34;;;;;;;9.00;3.92;;;14.70;1.00;;;;;;5052662;28;20039;-64
2023/04/22 08:54:00;;;;;;;7.00;4.38;;;15.10;99.90;;;;;;5052480;28;20037;-65
2023/04/22 08:56:27;;;;;;;5.80;3.97;;;14.90;1.00;;;;;;5052589;28;20052;-64
2023/04/22 08:58:54;;;;;;;7.32;4.63;;;15.40;99.90;;;;;;5052791;28;20049;-64
2023/04/22 09:01:21;;;;;;;8.40;4.75;;;15.40;99.90;;;;;;5052532;28;20511;-66
2023/04/22 09:03:48;;;;;;;7.22;4.63;;;15.80;88.90;;;;;;5052439;28;20051;-64
2023/04/22 09:06:17;;;;;;;8.27;4.40;;;15.80;99.90;;;;;;5052760;28;20056;-64
2023/04/22 09:08:43;;;;;;;7.10;4.55;;;16.80;99.90;;;;;;5052686;28;20041;-65
2023/04/22 09:11:09;;;;;;;6.22;4.88;;;15.80;1.00;;;;;;5018011;28;20162;-64
2023/04/22 09:13:35;;;;;;;6.22;4.22;;;16.00;99.90;;;;;;5052618;28;20488;-64
2023/04/22 09:16:01;;;;;;;6.97;4.03;;;;;;;;;;5052597;28;20041;-64
2023/04/22 09:18:26;;;;;;;7.53;4.55;;;16.30;99.90;;;;;;5052640;28;20041;-66
2023/04/22 09:20:55;;;;;;;5.88;4.13;;;16.40;1.00;;;;;;5052586;28;20385;-65
2023/04/22 09:23:21;;;;;;;5.57;3.97;;;17.40;1.00;;;;;;5052861;28;20377;-66
2023/04/22 09:25:47;;;;;;;7.75;4.45;;;16.50;99.90;;;;;;5052183;28;20036;-65
2023/04/22 09:28:17;;;;;;;6.00;4.10;;;16.50;69.00;;;;;;5052450;28;20044;-65
2023/04/22 09:30:45;;;;;;;5.65;3.95;;;16.60;99.90;;;;;;5052480;28;20045;-65
2023/04/22 09:33:12;;;;;;;6.53;4.25;;;16.90;99.90;;;;;;5052512;28;20052;-64
2023/04/22 09:35:40;;;;;;;6.75;3.95;;;16.70;99.90;;;;;;5052235;28;20132;-65
2023/04/22 09:38:09;;;;;;;6.57;4.35;;;17.50;94.00;;;;;;5052173;28;20116;-65
2023/04/22 09:40:36;;;;;;;5.55;3.78;;;17.00;99.90;;;;;;5052371;28;20388;-65
2023/04/22 09:43:06;;;;;;;7.53;4.32;;;17.20;99.90;;;;;;5052127;28;20037;-65
2023/04/22 09:45:40;;;;;;;6.10;3.90;;;18.40;99.90;;;;;;5052322;28;20044;-66
2023/04/22 09:48:14;;;;;;;5.45;3.97;;;17.40;1.00;;;;;;5052005;28;20044;-66
2023/04/22 09:50:44;;;;;;;6.68;4.03;;;17.50;99.90;;;;;;5052318;28;20087;-64
2023/04/22 09:53:12;;;;;;;7.00;3.97;;;17.60;1.00;;;;;;5034439;28;20045;-64
2023/04/22 09:55:43;;;;;;;6.25;4.15;;;17.70;1.00;;;;;;5054108;28;20033;-63
2023/04/22 09:58:11;;;;;;;4.05;2.75;;;17.80;1.00;;;;;;5056018;28;20045;-64
2023/04/22 10:00:41;;;;;;;6.60;3.40;;;17.80;99.90;;;;;;5055959;28;20400;-63
2023/04/22 10:03:07;;;;;;;4.53;3.35;;;17.80;12.20;;;;;;5055547;28;20128;-64
2023/04/22 10:05:36;;;;;;;4.65;3.03;;;17.80;43.20;;;;;;5037731;28;20099;-64
2023/04/22 10:08:03;;;;;;;5.78;3.33;;;18.00;99.90;;;;;;5055888;28;20052;-65
2023/04/22 10:10:29;;;;;;;5.65;2.72;;;18.00;1.00;;;;;;5055538;28;20056;-66
2023/04/22 10:12:56;;;;;;;5.05;3.55;;;18.10;1.00;;;;;;5055832;28;20037;-63
2023/04/22 10:15:22;;;;;;;5.45;3.55;;;18.20;99.90;;;;;;5055341;28;20029;-62
2023/04/22 10:17:51;;;;;;;5.72;3.40;;;18.30;99.90;;;;;;5055387;28;20056;-65
2023/04/22 10:20:18;;;;;;;6.43;3.80;;;18.30;99.90;;;;;;5055630;28;20041;-65
2023/04/22 10:22:44;;;;;;;5.18;3.30;;;18.40;99.90;;;;;;5037512;28;20049;-63
2023/04/22 10:25:24;;;;;;;6.47;3.70;;;18.30;99.90;;;;;;5055207;28;20037;-64
2023/04/22 10:28:09;;;;;;;5.45;3.58;;;18.30;99.90;;;;;;5037341;28;20408;-63
2023/04/22 10:30:37;;;;;;;5.32;3.42;;;18.40;99.90;;;;;;5055396;28;20040;-63
2023/04/22 10:33:26;;;;;;;5.68;3.75;;;18.40;99.90;;;;;;5055437;28;20135;-63
2023/04/22 10:36:13;;;;;;;6.03;3.42;;;18.50;99.90;;;;;;5055250;28;20041;-63
2023/04/22 10:38:53;;;;;;;6.25;3.25;;;18.50;99.90;;;;;;5055210;28;20124;-62
2023/04/22 10:41:28;;;;;;;4.97;3.10;;;18.50;99.90;;;;;;5054949;28;20080;-64
2023/04/22 10:43:59;;;;;;;5.82;3.22;;;18.50;99.90;;;;;;5055190;28;20040;-64
2023/04/22 10:46:31;;;;;;;4.25;2.83;;;18.50;99.90;;;;;;5055144;28;20067;-65
2023/04/22 10:49:07;;;;;;;6.28;3.08;;;18.70;99.90;;;;;;5055045;28;20419;-62
2023/04/22 10:51:40;;;;;;;5.35;2.45;;;18.80;99.90;;;;;;5054927;28;20094;-65
2023/04/22 10:54:06;;;;;;;4.13;2.35;;;19.30;99.90;;;;;;5036861;28;20408;-63
2023/04/22 10:56:31;;;;;;;4.43;2.63;;;19.00;99.90;;;;;;5054488;28;20033;-64
2023/04/22 10:58:57;;;;;;;4.35;2.58;;;19.00;99.90;;;;;;5054567;28;20048;-61
2023/04/22 11:01:26;;;;;;;4.28;2.60;;;18.90;99.90;;;;;;5054824;28;20074;-61
2023/04/22 11:03:52;;;;;;;4.25;2.75;;;18.90;99.90;;;;;;5054360;28;20053;-61
2023/04/22 11:06:21;;;;;;;4.57;3.03;;;18.90;99.90;;;;;;5053798;28;20517;-62
2023/04/22 11:09:06;;;;;;;4.63;2.67;;;19.00;99.90;;;;;;5054612;28;20044;-62
2023/04/22 11:11:31;;;;;;;4.93;3.17;;;19.10;99.90;;;;;;5054605;28;20044;-63
2023/04/22 11:13:57;;;;;;;4.97;2.63;;;19.00;99.90;;;;;;5054588;28;20044;-61
2023/04/22 11:16:23;;;;;;;4.22;3.00;;;19.60;99.90;;;;;;5036251;28;20522;-62
2023/04/22 11:18:49;;;;;;;5.03;3.17;;;19.10;99.90;;;;;;5054393;28;20048;-63
2023/04/22 11:21:15;;;;;;;5.70;2.67;;;19.20;99.90;;;;;;5054590;28;20095;-63
2023/04/22 11:23:50;;;;;;;4.70;2.53;;;19.00;99.90;;;;;;5054504;28;20202;-63
2023/04/22 11:26:16;;;;;;;6.00;2.75;;;19.40;99.90;;;;;;5054468;28;20372;-64
2023/04/22 11:28:46;;;;;;;3.15;2.40;;;19.50;99.90;;;;;;5054328;28;20047;-65
2023/04/22 11:31:13;;;;;;;6.83;2.83;;;19.80;99.90;;;;;;5054280;28;20047;-63
2023/04/22 11:33:39;;;;;;;3.22;2.25;;;19.90;99.90;;;;;;5054281;28;20091;-65
2023/04/22 11:36:09;;;;;;;5.45;2.63;;;20.00;99.90;;;;;;5036006;28;20404;-63
2023/04/22 11:38:35;;;;;;;5.05;2.92;;;20.10;99.90;;;;;;5054459;28;20049;-64
2023/04/22 11:41:00;;;;;;;5.55;2.60;;;20.10;99.90;;;;;;5054160;28;20381;-64
2023/04/22 11:43:26;;;;;;;5.47;3.08;;;20.10;99.90;;;;;;5054029;28;20492;-63
2023/04/22 11:45:54;;;;;;;3.90;2.47;;;20.10;99.90;;;;;;5036093;28;20079;-63
2023/04/22 11:48:20;;;;;;;4.85;2.78;;;20.00;99.90;;;;;;5053954;28;20112;-63
2023/04/22 11:50:47;;;;;;;4.30;2.83;;;19.90;99.90;;;;;;5053807;28;20072;-64
2023/04/22 11:53:15;;;;;;;3.55;2.17;;;20.00;99.90;;;;;;5053804;28;20041;-62
2023/04/22 11:55:41;;;;;;;5.10;3.00;;;20.20;99.90;;;;;;5053363;28;20044;-62
2023/04/22 11:58:16;;;;;;;5.97;2.60;;;20.50;99.90;;;;;;5053448;28;20056;-63
2023/04/22 12:00:42;;;;;;;6.00;3.03;;;20.50;99.90;;;;;;5053540;28;20404;-63
2023/04/22 12:03:11;;;;;;;4.43;3.10;;;20.50;99.90;;;;;;5053396;28;20049;-64
2023/04/22 12:05:42;;;;;;;3.67;2.30;;;20.50;99.90;;;;;;5053572;28;20486;-64
2023/04/22 12:08:13;;;;;;;5.20;3.08;;;20.60;99.90;;;;;;5053268;28;20045;-64
2023/04/22 12:10:46;;;;;;;9.13;3.22;;;20.60;99.90;;;;;;5053149;28;20044;-63
2023/04/22 12:13:28;;;;;;;4.38;3.03;;;20.50;99.90;;;;;;5053458;28;20044;-64
2023/04/22 12:16:00;;;;;;;4.47;3.28;;;20.40;99.90;;;;;;5053061;28;20044;-64
2023/04/22 12:18:28;;;;;;;5.00;3.10;;;20.40;99.90;;;;;;5052681;28;20041;-63
2023/04/22 12:21:07;;;;;;;3.83;2.65;;;20.50;99.90;;;;;;5053352;28;20075;-63
2023/04/22 12:23:48;;;;;;;5.70;3.30;;;20.30;99.90;;;;;;5036750;28;20033;-64
2023/04/22 12:26:15;;;;;;;4.80;3.03;;;20.30;99.90;;;;;;5053328;28;20036;-64
2023/04/22 12:28:42;;;;;;;6.25;3.03;;;20.40;99.90;;;;;;5053155;28;20110;-64
2023/04/22 12:31:09;;;;;;;5.10;3.38;;;20.30;99.90;;;;;;5053157;28;20056;-63
2023/04/22 12:33:36;;;;;;;4.95;3.00;;;21.00;99.90;;;;;;5053125;28;20486;-63
2023/04/22 12:36:02;;;;;;;4.85;2.67;;;20.20;99.90;;;;;;5052761;28;20041;-63
2023/04/22 12:38:28;;;;;;;6.75;2.97;;;20.20;99.90;;;;;;5052868;28;20044;-63
2023/04/22 12:40:54;;;;;;;3.38;2.60;;;20.40;99.90;;;;;;5053170;28;20033;-64
2023/04/22 12:43:19;;;;;;;4.32;2.72;;;20.50;99.90;;;;;;5052660;28;20037;-63
2023/04/22 12:45:45;;;;;;;4.68;2.80;;;20.50;99.90;;;;;;5053033;28;20094;-63
2023/04/22 12:48:11;;;;;;;5.30;3.03;;;20.30;99.90;;;;;;5053029;28;20069;-63
2023/04/22 12:50:36;;;;;;;7.03;3.22;;;20.60;99.90;;;;;;5052656;28;20102;-63
2023/04/22 12:53:02;;;;;;;5.18;3.30;;;20.00;99.90;;;;;;5052566;28;20033;-63
2023/04/22 12:55:28;;;;;;;3.75;3.00;;;20.00;99.90;;;;;;5052915;28;20099;-64
2023/04/22 12:57:55;;;;;;;6.25;3.20;;;19.90;99.90;;;;;;5034740;28;20123;-64
2023/04/22 13:00:21;;;;;;;5.07;3.40;;;20.00;99.90;;;;;;5052507;28;20041;-63
2023/04/22 13:02:48;;;;;;;5.32;2.92;;;20.10;99.90;;;;;;5052590;28;20379;-64
2023/04/22 13:05:15;;;;;;;5.05;3.38;;;19.90;99.90;;;;;;5052782;28;20067;-64